sensor_id;sensor_type;location;lat;lon;timestamp;P1;durP1;ratioP1;P2;durP2;ratioP2
9270;SDS011;4673;53.458;9.940;2024-01-11T00:01:25;18.73;;;18.63;;
9270;SDS011;4673;53.458;9.940;2024-01-11T00:03:50;18.37;;;18.27;;
9270;SDS011;4673;53.458;9.940;2024-01-11T00:06:16;20.67;;;20.57;;
9270;SDS011;4673;53.458;9.940;2024-01-11T00:08:41;19.00;;;18.90;;
9270;SDS011;4673;53.458;9.940;2024-01-11T00:11:08;18.63;;;18.53;;
9270;SDS011;4673;53.458;9.940;2024-01-11T00:13:33;19.33;;;19.23;;
9270;SDS011;4673;53.458;9.940;2024-01-11T00:15:59;17.70;;;17.60;;
9270;SDS011;4673;53.458;9.940;2024-01-11T00:18:24;17.73;;;17.63;;
9270;SDS011;4673;53.458;9.940;2024-01-11T00:20:50;18.10;;;18.00;;
9270;SDS011;4673;53.458;9.940;2024-01-11T00:23:16;18.50;;;18.40;;
9270;SDS011;4673;53.458;9.940;2024-01-11T00:25:42;18.70;;;18.60;;
9270;SDS011;4673;53.458;9.940;2024-01-11T00:28:08;19.17;;;19.07;;
9270;SDS011;4673;53.458;9.940;2024-01-11T00:30:33;19.87;;;19.77;;
9270;SDS011;4673;53.458;9.940;2024-01-11T00:32:59;18.37;;;18.27;;
9270;SDS011;4673;53.458;9.940;2024-01-11T00:35:24;18.33;;;18.23;;
9270;SDS011;4673;53.458;9.940;2024-01-11T00:37:50;18.40;;;18.30;;
9270;SDS011;4673;53.458;9.940;2024-01-11T00:40:16;19.40;;;19.30;;
9270;SDS011;4673;53.458;9.940;2024-01-11T00:42:41;17.13;;;17.03;;
9270;SDS011;4673;53.458;9.940;2024-01-11T00:45:07;19.50;;;19.40;;
9270;SDS011;4673;53.458;9.940;2024-01-11T00:47:33;19.57;;;19.47;;
9270;SDS011;4673;53.458;9.940;2024-01-11T00:49:58;19.27;;;19.17;;
9270;SDS011;4673;53.458;9.940;2024-01-11T00:52:24;20.47;;;20.37;;
9270;SDS011;4673;53.458;9.940;2024-01-11T00:54:50;19.40;;;19.20;;
9270;SDS011;4673;53.458;9.940;2024-01-11T00:57:15;18.73;;;18.63;;
9270;SDS011;4673;53.458;9.940;2024-01-11T00:59:41;20.03;;;19.93;;
9270;SDS011;4673;53.458;9.940;2024-01-11T01:02:06;17.83;;;17.73;;
9270;SDS011;4673;53.458;9.940;2024-01-11T01:04:32;18.90;;;18.77;;
9270;SDS011;4673;53.458;9.940;2024-01-11T01:06:58;19.23;;;19.13;;
9270;SDS011;4673;53.458;9.940;2024-01-11T01:09:23;16.83;;;16.73;;
9270;SDS011;4673;53.458;9.940;2024-01-11T01:11:49;17.53;;;17.43;;
9270;SDS011;4673;53.458;9.940;2024-01-11T01:14:15;16.93;;;16.83;;
9270;SDS011;4673;53.458;9.940;2024-01-11T01:16:41;15.77;;;15.67;;
9270;SDS011;4673;53.458;9.940;2024-01-11T01:19:07;16.80;;;16.70;;
9270;SDS011;4673;53.458;9.940;2024-01-11T01:21:32;16.30;;;16.20;;
9270;SDS011;4673;53.458;9.940;2024-01-11T01:23:58;17.67;;;17.57;;
9270;SDS011;4673;53.458;9.940;2024-01-11T01:26:23;13.00;;;12.90;;
9270;SDS011;4673;53.458;9.940;2024-01-11T01:28:49;13.87;;;13.77;;
9270;SDS011;4673;53.458;9.940;2024-01-11T01:31:15;17.57;;;17.47;;
9270;SDS011;4673;53.458;9.940;2024-01-11T01:33:40;16.33;;;16.23;;
9270;SDS011;4673;53.458;9.940;2024-01-11T01:36:12;15.77;;;15.67;;
9270;SDS011;4673;53.458;9.940;2024-01-11T01:38:38;14.77;;;14.67;;
9270;SDS011;4673;53.458;9.940;2024-01-11T01:41:03;16.37;;;16.27;;
9270;SDS011;4673;53.458;9.940;2024-01-11T01:43:29;15.50;;;15.40;;
9270;SDS011;4673;53.458;9.940;2024-01-11T01:45:54;16.97;;;16.87;;
9270;SDS011;4673;53.458;9.940;2024-01-11T01:48:21;15.50;;;15.40;;
9270;SDS011;4673;53.458;9.940;2024-01-11T01:50:47;15.27;;;15.17;;
9270;SDS011;4673;53.458;9.940;2024-01-11T01:53:19;14.37;;;14.27;;
9270;SDS011;4673;53.458;9.940;2024-01-11T01:55:46;15.40;;;15.30;;
9270;SDS011;4673;53.458;9.940;2024-01-11T01:58:13;16.13;;;16.03;;
9270;SDS011;4673;53.458;9.940;2024-01-11T02:00:40;14.93;;;14.83;;
9270;SDS011;4673;53.458;9.940;2024-01-11T02:03:07;16.40;;;16.30;;
9270;SDS011;4673;53.458;9.940;2024-01-11T02:05:34;15.13;;;15.03;;
9270;SDS011;4673;53.458;9.940;2024-01-11T02:08:00;14.60;;;14.50;;
9270;SDS011;4673;53.458;9.940;2024-01-11T02:10:33;14.90;;;14.80;;
9270;SDS011;4673;53.458;9.940;2024-01-11T02:13:00;16.50;;;16.40;;
9270;SDS011;4673;53.458;9.940;2024-01-11T02:15:26;14.80;;;14.70;;
9270;SDS011;4673;53.458;9.940;2024-01-11T02:17:52;14.47;;;14.37;;
9270;SDS011;4673;53.458;9.940;2024-01-11T02:20:17;13.87;;;13.77;;
9270;SDS011;4673;53.458;9.940;2024-01-11T02:22:46;14.03;;;13.93;;
9270;SDS011;4673;53.458;9.940;2024-01-11T02:25:14;15.53;;;15.43;;
9270;SDS011;4673;53.458;9.940;2024-01-11T02:27:46;14.03;;;13.93;;
9270;SDS011;4673;53.458;9.940;2024-01-11T02:30:13;15.10;;;15.00;;
9270;SDS011;4673;53.458;9.940;2024-01-11T02:32:39;14.30;;;14.20;;
9270;SDS011;4673;53.458;9.940;2024-01-11T02:35:05;15.40;;;15.30;;
9270;SDS011;4673;53.458;9.940;2024-01-11T02:37:31;16.27;;;16.17;;
9270;SDS011;4673;53.458;9.940;2024-01-11T02:39:57;13.63;;;13.53;;
9270;SDS011;4673;53.458;9.940;2024-01-11T02:42:23;14.80;;;14.70;;
9270;SDS011;4673;53.458;9.940;2024-01-11T02:44:49;14.50;;;14.40;;
9270;SDS011;4673;53.458;9.940;2024-01-11T02:47:14;14.93;;;14.83;;
9270;SDS011;4673;53.458;9.940;2024-01-11T02:49:40;15.07;;;14.97;;
9270;SDS011;4673;53.458;9.940;2024-01-11T02:52:06;15.40;;;15.30;;
9270;SDS011;4673;53.458;9.940;2024-01-11T02:54:31;14.57;;;14.47;;
9270;SDS011;4673;53.458;9.940;2024-01-11T02:56:57;16.13;;;16.03;;
9270;SDS011;4673;53.458;9.940;2024-01-11T02:59:23;15.17;;;15.07;;
9270;SDS011;4673;53.458;9.940;2024-01-11T03:01:49;14.00;;;13.90;;
9270;SDS011;4673;53.458;9.940;2024-01-11T03:04:15;14.47;;;14.37;;
9270;SDS011;4673;53.458;9.940;2024-01-11T03:06:41;15.13;;;15.03;;
9270;SDS011;4673;53.458;9.940;2024-01-11T03:09:07;15.70;;;15.60;;
9270;SDS011;4673;53.458;9.940;2024-01-11T03:11:33;13.73;;;13.63;;
9270;SDS011;4673;53.458;9.940;2024-01-11T03:13:58;15.67;;;15.57;;
9270;SDS011;4673;53.458;9.940;2024-01-11T03:16:24;15.03;;;14.93;;
9270;SDS011;4673;53.458;9.940;2024-01-11T03:18:50;16.00;;;15.90;;
9270;SDS011;4673;53.458;9.940;2024-01-11T03:21:16;15.07;;;14.97;;
9270;SDS011;4673;53.458;9.940;2024-01-11T03:23:41;15.63;;;15.53;;
9270;SDS011;4673;53.458;9.940;2024-01-11T03:26:14;17.03;;;16.93;;
9270;SDS011;4673;53.458;9.940;2024-01-11T03:28:40;15.43;;;15.33;;
9270;SDS011;4673;53.458;9.940;2024-01-11T03:31:07;17.00;;;16.90;;
9270;SDS011;4673;53.458;9.940;2024-01-11T03:33:34;16.00;;;15.90;;
9270;SDS011;4673;53.458;9.940;2024-01-11T03:35:59;17.10;;;17.00;;
9270;SDS011;4673;53.458;9.940;2024-01-11T03:38:30;18.10;;;18.00;;
9270;SDS011;4673;53.458;9.940;2024-01-11T03:40:56;17.37;;;17.27;;
9270;SDS011;4673;53.458;9.940;2024-01-11T03:43:22;16.73;;;16.63;;
9270;SDS011;4673;53.458;9.940;2024-01-11T03:45:47;17.03;;;16.93;;
9270;SDS011;4673;53.458;9.940;2024-01-11T03:48:13;17.70;;;17.60;;
9270;SDS011;4673;53.458;9.940;2024-01-11T03:50:38;18.50;;;18.30;;
9270;SDS011;4673;53.458;9.940;2024-01-11T03:53:04;15.77;;;15.67;;
9270;SDS011;4673;53.458;9.940;2024-01-11T03:55:30;18.90;;;18.77;;
9270;SDS011;4673;53.458;9.940;2024-01-11T03:57:55;16.57;;;16.47;;
9270;SDS011;4673;53.458;9.940;2024-01-11T04:00:21;19.37;;;19.17;;
9270;SDS011;4673;53.458;9.940;2024-01-11T04:02:47;16.70;;;16.60;;
9270;SDS011;4673;53.458;9.940;2024-01-11T04:05:12;17.50;;;17.40;;
9270;SDS011;4673;53.458;9.940;2024-01-11T04:07:38;16.37;;;16.27;;
9270;SDS011;4673;53.458;9.940;2024-01-11T04:10:04;17.17;;;17.07;;
9270;SDS011;4673;53.458;9.940;2024-01-11T04:12:30;19.10;;;18.90;;
9270;SDS011;4673;53.458;9.940;2024-01-11T04:14:55;18.73;;;18.53;;
9270;SDS011;4673;53.458;9.940;2024-01-11T04:17:21;20.47;;;20.27;;
9270;SDS011;4673;53.458;9.940;2024-01-11T04:19:46;17.63;;;17.47;;
9270;SDS011;4673;53.458;9.940;2024-01-11T04:22:12;17.57;;;17.47;;
9270;SDS011;4673;53.458;9.940;2024-01-11T04:24:38;18.47;;;18.33;;
9270;SDS011;4673;53.458;9.940;2024-01-11T04:27:03;19.70;;;19.50;;
9270;SDS011;4673;53.458;9.940;2024-01-11T04:29:29;18.17;;;18.07;;
9270;SDS011;4673;53.458;9.940;2024-01-11T04:31:55;18.97;;;18.77;;
9270;SDS011;4673;53.458;9.940;2024-01-11T04:34:20;19.27;;;19.07;;
9270;SDS011;4673;53.458;9.940;2024-01-11T04:36:46;23.07;;;22.87;;
9270;SDS011;4673;53.458;9.940;2024-01-11T04:39:11;19.37;;;19.17;;
9270;SDS011;4673;53.458;9.940;2024-01-11T04:41:38;20.00;;;19.80;;
9270;SDS011;4673;53.458;9.940;2024-01-11T04:44:04;21.23;;;21.03;;
9270;SDS011;4673;53.458;9.940;2024-01-11T04:46:31;21.03;;;20.83;;
9270;SDS011;4673;53.458;9.940;2024-01-11T04:48:56;22.53;;;22.33;;
9270;SDS011;4673;53.458;9.940;2024-01-11T04:51:22;21.30;;;21.10;;
9270;SDS011;4673;53.458;9.940;2024-01-11T04:53:47;21.87;;;21.67;;
9270;SDS011;4673;53.458;9.940;2024-01-11T04:56:14;21.57;;;21.37;;
9270;SDS011;4673;53.458;9.940;2024-01-11T04:58:41;23.70;;;23.50;;
9270;SDS011;4673;53.458;9.940;2024-01-11T05:01:11;17.87;;;17.67;;
9270;SDS011;4673;53.458;9.940;2024-01-11T05:03:38;19.20;;;19.03;;
9270;SDS011;4673;53.458;9.940;2024-01-11T05:06:03;22.77;;;22.57;;
9270;SDS011;4673;53.458;9.940;2024-01-11T05:08:32;21.37;;;21.17;;
9270;SDS011;4673;53.458;9.940;2024-01-11T05:10:58;19.67;;;19.47;;
9270;SDS011;4673;53.458;9.940;2024-01-11T05:13:24;21.43;;;21.23;;
9270;SDS011;4673;53.458;9.940;2024-01-11T05:15:49;20.63;;;20.43;;
9270;SDS011;4673;53.458;9.940;2024-01-11T05:18:15;22.40;;;22.20;;
9270;SDS011;4673;53.458;9.940;2024-01-11T05:20:40;23.60;;;23.40;;
9270;SDS011;4673;53.458;9.940;2024-01-11T05:23:06;21.17;;;20.97;;
9270;SDS011;4673;53.458;9.940;2024-01-11T05:25:32;21.53;;;21.33;;
9270;SDS011;4673;53.458;9.940;2024-01-11T05:28:00;19.37;;;19.17;;
9270;SDS011;4673;53.458;9.940;2024-01-11T05:30:26;23.37;;;23.17;;
9270;SDS011;4673;53.458;9.940;2024-01-11T05:32:53;22.07;;;21.87;;
9270;SDS011;4673;53.458;9.940;2024-01-11T05:35:18;17.30;;;17.10;;
9270;SDS011;4673;53.458;9.940;2024-01-11T05:37:44;17.63;;;17.53;;
9270;SDS011;4673;53.458;9.940;2024-01-11T05:40:10;20.83;;;20.63;;
9270;SDS011;4673;53.458;9.940;2024-01-11T05:42:36;16.47;;;16.37;;
9270;SDS011;4673;53.458;9.940;2024-01-11T05:45:04;15.00;;;14.90;;
9270;SDS011;4673;53.458;9.940;2024-01-11T05:47:30;14.00;;;13.90;;
9270;SDS011;4673;53.458;9.940;2024-01-11T05:49:56;13.33;;;13.23;;
9270;SDS011;4673;53.458;9.940;2024-01-11T05:52:22;11.00;;;10.90;;
9270;SDS011;4673;53.458;9.940;2024-01-11T05:54:47;11.33;;;11.23;;
9270;SDS011;4673;53.458;9.940;2024-01-11T05:57:13;11.00;;;10.90;;
9270;SDS011;4673;53.458;9.940;2024-01-11T05:59:43;10.30;;;10.20;;
9270;SDS011;4673;53.458;9.940;2024-01-11T06:02:09;9.13;;;9.03;;
9270;SDS011;4673;53.458;9.940;2024-01-11T06:04:36;8.97;;;8.90;;
9270;SDS011;4673;53.458;9.940;2024-01-11T06:07:01;7.67;;;7.67;;
9270;SDS011;4673;53.458;9.940;2024-01-11T06:09:27;8.40;;;8.30;;
9270;SDS011;4673;53.458;9.940;2024-01-11T06:11:53;8.30;;;8.30;;
9270;SDS011;4673;53.458;9.940;2024-01-11T06:14:18;7.93;;;7.93;;
9270;SDS011;4673;53.458;9.940;2024-01-11T06:16:44;8.27;;;8.27;;
9270;SDS011;4673;53.458;9.940;2024-01-11T06:19:10;8.10;;;8.07;;
9270;SDS011;4673;53.458;9.940;2024-01-11T06:21:36;9.73;;;9.63;;
9270;SDS011;4673;53.458;9.940;2024-01-11T06:24:02;7.63;;;7.60;;
9270;SDS011;4673;53.458;9.940;2024-01-11T06:26:28;10.30;;;10.10;;
9270;SDS011;4673;53.458;9.940;2024-01-11T06:28:54;8.13;;;8.13;;
9270;SDS011;4673;53.458;9.940;2024-01-11T06:31:20;8.27;;;8.27;;
9270;SDS011;4673;53.458;9.940;2024-01-11T06:33:45;7.00;;;7.00;;
9270;SDS011;4673;53.458;9.940;2024-01-11T06:36:11;9.03;;;8.93;;
9270;SDS011;4673;53.458;9.940;2024-01-11T06:38:37;9.17;;;9.07;;
9270;SDS011;4673;53.458;9.940;2024-01-11T06:41:03;8.83;;;8.73;;
9270;SDS011;4673;53.458;9.940;2024-01-11T06:43:28;9.27;;;9.17;;
9270;SDS011;4673;53.458;9.940;2024-01-11T06:45:54;8.57;;;8.47;;
9270;SDS011;4673;53.458;9.940;2024-01-11T06:48:20;8.77;;;8.67;;
9270;SDS011;4673;53.458;9.940;2024-01-11T06:50:45;11.20;;;11.10;;
9270;SDS011;4673;53.458;9.940;2024-01-11T06:53:11;9.90;;;9.80;;
9270;SDS011;4673;53.458;9.940;2024-01-11T06:55:37;8.97;;;8.93;;
9270;SDS011;4673;53.458;9.940;2024-01-11T06:58:02;9.37;;;9.27;;
9270;SDS011;4673;53.458;9.940;2024-01-11T07:00:28;9.47;;;9.37;;
9270;SDS011;4673;53.458;9.940;2024-01-11T07:02:54;8.37;;;8.27;;
9270;SDS011;4673;53.458;9.940;2024-01-11T07:05:19;9.53;;;9.43;;
9270;SDS011;4673;53.458;9.940;2024-01-11T07:07:46;10.13;;;10.03;;
9270;SDS011;4673;53.458;9.940;2024-01-11T07:10:11;9.03;;;8.93;;
9270;SDS011;4673;53.458;9.940;2024-01-11T07:12:37;8.47;;;8.37;;
9270;SDS011;4673;53.458;9.940;2024-01-11T07:15:05;7.60;;;7.50;;
9270;SDS011;4673;53.458;9.940;2024-01-11T07:17:33;8.47;;;8.37;;
9270;SDS011;4673;53.458;9.940;2024-01-11T07:19:58;7.43;;;7.33;;
9270;SDS011;4673;53.458;9.940;2024-01-11T07:22:24;8.77;;;8.73;;
9270;SDS011;4673;53.458;9.940;2024-01-11T07:24:50;8.43;;;8.33;;
9270;SDS011;4673;53.458;9.940;2024-01-11T07:27:15;7.10;;;7.10;;
9270;SDS011;4673;53.458;9.940;2024-01-11T07:29:41;9.10;;;9.00;;
9270;SDS011;4673;53.458;9.940;2024-01-11T07:32:06;8.67;;;8.50;;
9270;SDS011;4673;53.458;9.940;2024-01-11T07:34:32;8.27;;;8.17;;
9270;SDS011;4673;53.458;9.940;2024-01-11T07:36:58;8.13;;;8.03;;
9270;SDS011;4673;53.458;9.940;2024-01-11T07:39:24;9.43;;;9.33;;
9270;SDS011;4673;53.458;9.940;2024-01-11T07:41:50;9.20;;;9.10;;
9270;SDS011;4673;53.458;9.940;2024-01-11T07:44:15;10.80;;;10.70;;
9270;SDS011;4673;53.458;9.940;2024-01-11T07:46:41;10.63;;;10.53;;
9270;SDS011;4673;53.458;9.940;2024-01-11T07:49:07;9.87;;;9.77;;
9270;SDS011;4673;53.458;9.940;2024-01-11T07:51:33;10.30;;;10.20;;
9270;SDS011;4673;53.458;9.940;2024-01-11T07:54:02;9.07;;;8.97;;
9270;SDS011;4673;53.458;9.940;2024-01-11T07:56:28;10.07;;;9.97;;
9270;SDS011;4673;53.458;9.940;2024-01-11T07:58:54;11.83;;;11.73;;
9270;SDS011;4673;53.458;9.940;2024-01-11T08:01:20;11.53;;;11.40;;
9270;SDS011;4673;53.458;9.940;2024-01-11T08:03:45;9.63;;;9.53;;
9270;SDS011;4673;53.458;9.940;2024-01-11T08:06:12;11.60;;;11.50;;
9270;SDS011;4673;53.458;9.940;2024-01-11T08:08:38;11.43;;;11.33;;
9270;SDS011;4673;53.458;9.940;2024-01-11T08:11:09;11.53;;;11.43;;
9270;SDS011;4673;53.458;9.940;2024-01-11T08:13:37;11.13;;;11.03;;
9270;SDS011;4673;53.458;9.940;2024-01-11T08:16:03;12.17;;;12.07;;
9270;SDS011;4673;53.458;9.940;2024-01-11T08:18:32;11.57;;;11.47;;
9270;SDS011;4673;53.458;9.940;2024-01-11T08:20:58;14.87;;;14.77;;
9270;SDS011;4673;53.458;9.940;2024-01-11T08:23:24;11.53;;;11.43;;
9270;SDS011;4673;53.458;9.940;2024-01-11T08:25:49;10.50;;;10.40;;
9270;SDS011;4673;53.458;9.940;2024-01-11T08:28:15;10.57;;;10.47;;
9270;SDS011;4673;53.458;9.940;2024-01-11T08:30:41;12.53;;;12.43;;
9270;SDS011;4673;53.458;9.940;2024-01-11T08:33:07;14.03;;;13.93;;
9270;SDS011;4673;53.458;9.940;2024-01-11T08:35:34;13.87;;;13.77;;
9270;SDS011;4673;53.458;9.940;2024-01-11T08:37:59;11.97;;;11.87;;
9270;SDS011;4673;53.458;9.940;2024-01-11T08:40:25;11.83;;;11.73;;
9270;SDS011;4673;53.458;9.940;2024-01-11T08:42:50;12.03;;;11.93;;
9270;SDS011;4673;53.458;9.940;2024-01-11T08:45:16;12.80;;;12.70;;
9270;SDS011;4673;53.458;9.940;2024-01-11T08:47:47;12.83;;;12.73;;
9270;SDS011;4673;53.458;9.940;2024-01-11T08:50:13;11.50;;;11.40;;
9270;SDS011;4673;53.458;9.940;2024-01-11T08:52:39;11.43;;;11.33;;
9270;SDS011;4673;53.458;9.940;2024-01-11T08:55:05;11.33;;;11.23;;
9270;SDS011;4673;53.458;9.940;2024-01-11T08:57:32;11.77;;;11.67;;
9270;SDS011;4673;53.458;9.940;2024-01-11T08:59:58;11.27;;;11.17;;
9270;SDS011;4673;53.458;9.940;2024-01-11T09:02:23;9.77;;;9.67;;
9270;SDS011;4673;53.458;9.940;2024-01-11T09:04:49;9.40;;;9.37;;
9270;SDS011;4673;53.458;9.940;2024-01-11T09:07:15;8.43;;;8.40;;
9270;SDS011;4673;53.458;9.940;2024-01-11T09:09:41;7.00;;;7.00;;
9270;SDS011;4673;53.458;9.940;2024-01-11T09:12:06;7.70;;;7.63;;
9270;SDS011;4673;53.458;9.940;2024-01-11T09:14:32;7.30;;;7.30;;
9270;SDS011;4673;53.458;9.940;2024-01-11T09:16:58;8.33;;;8.27;;
9270;SDS011;4673;53.458;9.940;2024-01-11T09:19:23;7.27;;;7.27;;
9270;SDS011;4673;53.458;9.940;2024-01-11T09:21:49;6.17;;;6.17;;
9270;SDS011;4673;53.458;9.940;2024-01-11T09:24:15;6.83;;;6.83;;
9270;SDS011;4673;53.458;9.940;2024-01-11T09:26:40;6.43;;;6.43;;
9270;SDS011;4673;53.458;9.940;2024-01-11T09:29:06;6.00;;;5.93;;
9270;SDS011;4673;53.458;9.940;2024-01-11T09:31:31;5.83;;;5.83;;
9270;SDS011;4673;53.458;9.940;2024-01-11T09:33:57;6.10;;;6.10;;
9270;SDS011;4673;53.458;9.940;2024-01-11T09:36:23;5.77;;;5.77;;
9270;SDS011;4673;53.458;9.940;2024-01-11T09:38:48;5.87;;;5.87;;
9270;SDS011;4673;53.458;9.940;2024-01-11T09:41:14;5.80;;;5.80;;
9270;SDS011;4673;53.458;9.940;2024-01-11T09:43:40;6.73;;;6.73;;
9270;SDS011;4673;53.458;9.940;2024-01-11T09:46:07;6.10;;;6.10;;
9270;SDS011;4673;53.458;9.940;2024-01-11T09:48:34;6.27;;;6.27;;
9270;SDS011;4673;53.458;9.940;2024-01-11T09:51:02;5.77;;;5.77;;
9270;SDS011;4673;53.458;9.940;2024-01-11T09:53:30;6.00;;;6.00;;
9270;SDS011;4673;53.458;9.940;2024-01-11T09:56:01;7.23;;;7.13;;
9270;SDS011;4673;53.458;9.940;2024-01-11T09:58:30;7.60;;;7.60;;
9270;SDS011;4673;53.458;9.940;2024-01-11T10:00:57;7.10;;;7.10;;
9270;SDS011;4673;53.458;9.940;2024-01-11T10:03:24;6.97;;;6.97;;
9270;SDS011;4673;53.458;9.940;2024-01-11T10:05:51;8.37;;;8.37;;
9270;SDS011;4673;53.458;9.940;2024-01-11T10:08:22;9.73;;;9.73;;
9270;SDS011;4673;53.458;9.940;2024-01-11T10:10:49;8.33;;;8.33;;
9270;SDS011;4673;53.458;9.940;2024-01-11T10:13:15;7.97;;;7.97;;
9270;SDS011;4673;53.458;9.940;2024-01-11T10:15:43;9.00;;;8.90;;
9270;SDS011;4673;53.458;9.940;2024-01-11T10:18:09;9.60;;;9.50;;
9270;SDS011;4673;53.458;9.940;2024-01-11T10:20:35;8.60;;;8.60;;
9270;SDS011;4673;53.458;9.940;2024-01-11T10:23:02;9.50;;;9.40;;
9270;SDS011;4673;53.458;9.940;2024-01-11T10:25:28;8.93;;;8.87;;
9270;SDS011;4673;53.458;9.940;2024-01-11T10:27:54;9.37;;;9.27;;
9270;SDS011;4673;53.458;9.940;2024-01-11T10:30:20;9.83;;;9.73;;
9270;SDS011;4673;53.458;9.940;2024-01-11T10:32:51;8.37;;;8.37;;
9270;SDS011;4673;53.458;9.940;2024-01-11T10:35:16;11.13;;;11.03;;
9270;SDS011;4673;53.458;9.940;2024-01-11T10:37:43;8.93;;;8.87;;
9270;SDS011;4673;53.458;9.940;2024-01-11T10:40:09;9.70;;;9.60;;
9270;SDS011;4673;53.458;9.940;2024-01-11T10:42:44;8.73;;;8.73;;
9270;SDS011;4673;53.458;9.940;2024-01-11T10:45:14;9.87;;;9.83;;
9270;SDS011;4673;53.458;9.940;2024-01-11T10:47:51;10.87;;;10.77;;
9270;SDS011;4673;53.458;9.940;2024-01-11T10:50:20;10.53;;;10.43;;
9270;SDS011;4673;53.458;9.940;2024-01-11T10:52:54;10.67;;;10.57;;
9270;SDS011;4673;53.458;9.940;2024-01-11T10:55:21;10.93;;;10.83;;
9270;SDS011;4673;53.458;9.940;2024-01-11T10:57:47;10.50;;;10.40;;
9270;SDS011;4673;53.458;9.940;2024-01-11T11:00:14;10.57;;;10.47;;
9270;SDS011;4673;53.458;9.940;2024-01-11T11:02:41;11.07;;;10.97;;
9270;SDS011;4673;53.458;9.940;2024-01-11T11:05:08;11.90;;;11.80;;
9270;SDS011;4673;53.458;9.940;2024-01-11T11:07:36;10.40;;;10.30;;
9270;SDS011;4673;53.458;9.940;2024-01-11T11:10:03;11.53;;;11.43;;
9270;SDS011;4673;53.458;9.940;2024-01-11T11:12:32;11.47;;;11.37;;
9270;SDS011;4673;53.458;9.940;2024-01-11T11:14:59;14.30;;;14.20;;
9270;SDS011;4673;53.458;9.940;2024-01-11T11:17:26;12.97;;;12.87;;
9270;SDS011;4673;53.458;9.940;2024-01-11T11:19:53;13.20;;;13.10;;
9270;SDS011;4673;53.458;9.940;2024-01-11T11:22:19;14.60;;;14.50;;
9270;SDS011;4673;53.458;9.940;2024-01-11T11:24:45;14.97;;;14.80;;
9270;SDS011;4673;53.458;9.940;2024-01-11T11:27:14;14.47;;;14.37;;
9270;SDS011;4673;53.458;9.940;2024-01-11T11:29:41;15.17;;;14.97;;
9270;SDS011;4673;53.458;9.940;2024-01-11T11:32:06;13.73;;;13.63;;
9270;SDS011;4673;53.458;9.940;2024-01-11T11:37:11;15.53;;;15.33;;
9270;SDS011;4673;53.458;9.940;2024-01-11T11:39:37;14.63;;;14.53;;
9270;SDS011;4673;53.458;9.940;2024-01-11T11:42:04;15.43;;;15.33;;
9270;SDS011;4673;53.458;9.940;2024-01-11T11:44:30;15.33;;;15.23;;
9270;SDS011;4673;53.458;9.940;2024-01-11T11:47:09;13.87;;;13.77;;
9270;SDS011;4673;53.458;9.940;2024-01-11T11:52:28;15.43;;;15.33;;
9270;SDS011;4673;53.458;9.940;2024-01-11T11:54:55;13.30;;;13.20;;
9270;SDS011;4673;53.458;9.940;2024-01-11T11:57:22;14.83;;;14.73;;
9270;SDS011;4673;53.458;9.940;2024-01-11T11:59:48;13.50;;;13.40;;
9270;SDS011;4673;53.458;9.940;2024-01-11T12:02:16;16.00;;;15.80;;
9270;SDS011;4673;53.458;9.940;2024-01-11T12:04:46;15.10;;;15.00;;
9270;SDS011;4673;53.458;9.940;2024-01-11T12:07:14;15.90;;;15.77;;
9270;SDS011;4673;53.458;9.940;2024-01-11T12:09:41;15.40;;;15.30;;
9270;SDS011;4673;53.458;9.940;2024-01-11T12:12:07;14.77;;;14.67;;
9270;SDS011;4673;53.458;9.940;2024-01-11T12:14:33;14.63;;;14.53;;
9270;SDS011;4673;53.458;9.940;2024-01-11T12:17:00;15.03;;;14.83;;
9270;SDS011;4673;53.458;9.940;2024-01-11T12:19:25;15.07;;;14.97;;
9270;SDS011;4673;53.458;9.940;2024-01-11T12:21:52;15.27;;;15.17;;
9270;SDS011;4673;53.458;9.940;2024-01-11T12:24:17;14.80;;;14.70;;
9270;SDS011;4673;53.458;9.940;2024-01-11T12:26:44;19.63;;;19.43;;
9270;SDS011;4673;53.458;9.940;2024-01-11T12:29:11;15.67;;;15.47;;
9270;SDS011;4673;53.458;9.940;2024-01-11T12:31:38;15.77;;;15.67;;
9270;SDS011;4673;53.458;9.940;2024-01-11T12:34:04;15.60;;;15.47;;
9270;SDS011;4673;53.458;9.940;2024-01-11T12:36:30;16.57;;;16.37;;
9270;SDS011;4673;53.458;9.940;2024-01-11T12:38:57;16.73;;;16.60;;
9270;SDS011;4673;53.458;9.940;2024-01-11T12:41:23;15.87;;;15.77;;
9270;SDS011;4673;53.458;9.940;2024-01-11T12:43:49;15.53;;;15.33;;
9270;SDS011;4673;53.458;9.940;2024-01-11T12:46:15;16.30;;;16.10;;
9270;SDS011;4673;53.458;9.940;2024-01-11T12:48:42;16.73;;;16.53;;
9270;SDS011;4673;53.458;9.940;2024-01-11T12:51:08;17.57;;;17.37;;
9270;SDS011;4673;53.458;9.940;2024-01-11T12:53:35;16.63;;;16.43;;
9270;SDS011;4673;53.458;9.940;2024-01-11T12:56:02;16.80;;;16.60;;
9270;SDS011;4673;53.458;9.940;2024-01-11T12:58:33;16.17;;;15.97;;
9270;SDS011;4673;53.458;9.940;2024-01-11T13:00:59;17.20;;;17.00;;
9270;SDS011;4673;53.458;9.940;2024-01-11T13:03:25;18.03;;;17.83;;
9270;SDS011;4673;53.458;9.940;2024-01-11T13:05:52;17.60;;;17.40;;
9270;SDS011;4673;53.458;9.940;2024-01-11T13:08:18;17.33;;;17.13;;
9270;SDS011;4673;53.458;9.940;2024-01-11T13:10:44;17.13;;;16.93;;
9270;SDS011;4673;53.458;9.940;2024-01-11T13:13:12;16.67;;;16.47;;
9270;SDS011;4673;53.458;9.940;2024-01-11T13:15:38;16.57;;;16.37;;
9270;SDS011;4673;53.458;9.940;2024-01-11T13:18:04;15.60;;;15.40;;
9270;SDS011;4673;53.458;9.940;2024-01-11T13:20:30;16.17;;;15.97;;
9270;SDS011;4673;53.458;9.940;2024-01-11T13:25:38;15.57;;;15.47;;
9270;SDS011;4673;53.458;9.940;2024-01-11T13:28:24;15.20;;;15.10;;
9270;SDS011;4673;53.458;9.940;2024-01-11T13:30:51;14.67;;;14.57;;
9270;SDS011;4673;53.458;9.940;2024-01-11T13:33:17;14.53;;;14.43;;
9270;SDS011;4673;53.458;9.940;2024-01-11T13:35:44;13.90;;;13.80;;
9270;SDS011;4673;53.458;9.940;2024-01-11T13:38:10;14.17;;;13.97;;
9270;SDS011;4673;53.458;9.940;2024-01-11T13:40:36;14.80;;;14.70;;
9270;SDS011;4673;53.458;9.940;2024-01-11T13:43:03;13.23;;;13.13;;
9270;SDS011;4673;53.458;9.940;2024-01-11T13:45:29;13.83;;;13.73;;
9270;SDS011;4673;53.458;9.940;2024-01-11T13:47:55;14.47;;;14.27;;
9270;SDS011;4673;53.458;9.940;2024-01-11T13:50:21;14.60;;;14.43;;
9270;SDS011;4673;53.458;9.940;2024-01-11T13:52:49;13.90;;;13.80;;
9270;SDS011;4673;53.458;9.940;2024-01-11T13:55:15;13.57;;;13.47;;
9270;SDS011;4673;53.458;9.940;2024-01-11T13:57:42;17.10;;;16.90;;
9270;SDS011;4673;53.458;9.940;2024-01-11T14:00:09;14.87;;;14.67;;
9270;SDS011;4673;53.458;9.940;2024-01-11T14:02:36;19.70;;;19.50;;
9270;SDS011;4673;53.458;9.940;2024-01-11T14:05:02;16.40;;;16.30;;
9270;SDS011;4673;53.458;9.940;2024-01-11T14:07:29;15.43;;;15.33;;
9270;SDS011;4673;53.458;9.940;2024-01-11T14:09:55;13.43;;;13.33;;
9270;SDS011;4673;53.458;9.940;2024-01-11T14:12:21;14.10;;;14.00;;
9270;SDS011;4673;53.458;9.940;2024-01-11T14:14:47;14.33;;;14.23;;
9270;SDS011;4673;53.458;9.940;2024-01-11T14:17:12;13.67;;;13.57;;
9270;SDS011;4673;53.458;9.940;2024-01-11T14:19:38;11.90;;;11.80;;
9270;SDS011;4673;53.458;9.940;2024-01-11T14:22:04;13.07;;;12.97;;
9270;SDS011;4673;53.458;9.940;2024-01-11T14:24:30;13.03;;;12.93;;
9270;SDS011;4673;53.458;9.940;2024-01-11T14:26:55;13.40;;;13.30;;
9270;SDS011;4673;53.458;9.940;2024-01-11T14:29:21;11.57;;;11.47;;
9270;SDS011;4673;53.458;9.940;2024-01-11T14:31:46;12.70;;;12.60;;
9270;SDS011;4673;53.458;9.940;2024-01-11T14:34:13;11.93;;;11.83;;
9270;SDS011;4673;53.458;9.940;2024-01-11T14:36:38;11.80;;;11.70;;
9270;SDS011;4673;53.458;9.940;2024-01-11T14:39:04;11.03;;;10.93;;
9270;SDS011;4673;53.458;9.940;2024-01-11T14:41:30;12.00;;;11.90;;
9270;SDS011;4673;53.458;9.940;2024-01-11T14:43:56;12.33;;;12.23;;
9270;SDS011;4673;53.458;9.940;2024-01-11T14:46:22;13.50;;;13.33;;
9270;SDS011;4673;53.458;9.940;2024-01-11T14:48:49;14.93;;;14.83;;
9270;SDS011;4673;53.458;9.940;2024-01-11T14:51:14;12.40;;;12.30;;
9270;SDS011;4673;53.458;9.940;2024-01-11T14:53:40;12.77;;;12.67;;
9270;SDS011;4673;53.458;9.940;2024-01-11T14:56:06;12.27;;;12.17;;